Terminal Aerodrome Forecast
Issued by NWS

Home | Current Version | Previous Version | Graphics & Text | Print | Product List | Glossary On
Versions: 1 2 3 4 5 6 7 8 9 10 11 12 13 14 15
064
FTUS45 KGGW 221720
TAFSDY
TAF
KSDY 221720Z 2218/2318 08009KT P6SM VCTS SCT100CB
     FM222100 10012KT P6SM SCT110
      TEMPO 2300/2303 6SM TSGR BKN090CB
     FM230300 10010G18KT P6SM -SHRA BKN100 WS020/13040KT PROB30
      2303/2307 TSGR OVC040CB
     FM230700 12008KT P6SM SCT100 PROB30 2307/2312 6SM TS BKN100CB
     FM231200 28009KT P6SM SCT110
     FM231500 28014G24KT P6SM SCT150=

USA.gov is the U.S. government's official web portal to all federal, state and local government web resources and services.